Time;durP1;ratioP1;P1;durP2;ratioP2;P2;SDS_P1;SDS_P2;PMS_P1;PMS_P2;Temp;Humidity;BMP_temperature;BMP_pressure;BME280_temperature;BME280_humidity;BME280_pressure;Samples;Min_cycle;Max_cycle;Signal;HPM_P1;HPM_P2
2023/12/14 00:01:14;;;;;;;9.13;5.53;;;;;;;6.24;100.00;97822.25;5029791;28;20028;-56
2023/12/14 00:03:41;;;;;;;9.98;6.22;;;;;;;6.22;100.00;97827.81;5028450;28;20017;-55
2023/12/14 00:06:08;;;;;;;9.25;5.47;;;;;;;6.28;100.00;97820.81;5018124;28;20044;-56
2023/12/14 00:08:33;;;;;;;10.90;6.38;;;;;;;6.31;100.00;97834.69;5011437;28;20029;-56
2023/12/14 00:11:10;;;;;;;15.05;6.93;;;;;;;6.33;100.00;97824.53;5026764;28;20017;-56
2023/12/14 00:13:36;;;;;;;11.38;5.95;;;;;;;6.31;100.00;97828.47;5016104;28;20120;-56
2023/12/14 00:16:03;;;;;;;11.88;6.32;;;;;;;6.39;100.00;97836.34;5016469;28;20113;-61
2023/12/14 00:18:29;;;;;;;10.43;6.10;;;;;;;6.45;100.00;97840.09;5035409;28;20130;-56
2023/12/14 00:20:54;;;;;;;9.70;5.80;;;;;;;6.42;100.00;97848.53;5016886;28;20461;-56
2023/12/14 00:23:22;;;;;;;13.90;6.25;;;;;;;6.39;100.00;97840.88;5017983;28;20116;-56
2023/12/14 00:25:47;;;;;;;11.55;6.25;;;;;;;6.33;100.00;97850.59;5025760;28;20025;-56
2023/12/14 00:28:12;;;;;;;11.88;6.63;;;;;;;6.33;100.00;97848.72;5010833;28;20521;-55
2023/12/14 00:30:38;;;;;;;11.05;6.43;;;;;;;6.38;100.00;97860.75;5022317;28;20036;-56
2023/12/14 00:33:03;;;;;;;10.60;6.45;;;;;;;6.34;100.00;97855.78;5017817;28;20530;-56
2023/12/14 00:35:29;;;;;;;10.52;6.03;;;;;;;6.40;100.00;97858.69;5014721;28;20465;-56
2023/12/14 00:37:54;;;;;;;10.90;5.97;;;;;;;6.40;100.00;97854.13;5006155;28;20111;-56
2023/12/14 00:40:20;;;;;;;12.82;6.90;;;;;;;6.41;100.00;97865.72;5010222;28;20113;-56
2023/12/14 00:42:45;;;;;;;11.07;5.80;;;;;;;6.41;100.00;97863.03;5014381;28;20033;-56
2023/12/14 00:45:10;;;;;;;11.65;5.93;;;;;;;6.35;100.00;97860.09;5013689;28;20469;-56
2023/12/14 00:47:36;;;;;;;12.48;6.07;;;;;;;6.30;100.00;97864.41;5018034;28;20026;-55
2023/12/14 00:50:02;;;;;;;10.85;6.60;;;;;;;6.32;100.00;97867.75;5015082;28;20033;-56
2023/12/14 00:52:27;;;;;;;14.00;5.40;;;;;;;6.34;100.00;97874.56;5014094;28;20022;-56
2023/12/14 00:54:53;;;;;;;9.13;5.80;;;;;;;6.34;100.00;97871.03;5029726;28;20027;-58
2023/12/14 00:57:18;;;;;;;11.18;6.53;;;;;;;6.37;100.00;97878.72;5016748;28;20124;-60
2023/12/14 00:59:44;;;;;;;11.05;6.45;;;;;;;6.41;100.00;97871.91;5005610;28;20037;-61
2023/12/14 01:02:10;;;;;;;9.65;5.50;;;;;;;6.38;100.00;97876.84;5016703;28;20025;-60
2023/12/14 01:04:35;;;;;;;10.80;5.97;;;;;;;6.41;100.00;97888.03;5004016;28;20022;-61
2023/12/14 01:07:01;;;;;;;10.88;5.93;;;;;;;6.45;100.00;97889.28;5015237;28;20032;-61
2023/12/14 01:09:27;;;;;;;10.68;5.82;;;;;;;6.43;100.00;97891.34;5014696;28;20108;-61
2023/12/14 01:11:52;;;;;;;11.18;5.80;;;;;;;6.38;100.00;97893.78;5018877;28;20025;-61
2023/12/14 01:14:17;;;;;;;10.23;6.60;;;;;;;6.38;100.00;97901.03;5007898;28;20112;-56
2023/12/14 01:16:43;;;;;;;10.70;6.32;;;;;;;6.36;100.00;97901.22;5009754;28;20446;-56
2023/12/14 01:19:08;;;;;;;11.25;5.82;;;;;;;6.27;100.00;97910.47;4990496;28;20025;-57
2023/12/14 01:21:33;;;;;;;13.68;6.60;;;;;;;6.42;100.00;97921.09;5024934;28;20020;-56
2023/12/14 01:24:03;;;;;;;15.85;7.05;;;;;;;6.44;100.00;97913.66;5016615;28;20078;-58
2023/12/14 01:26:28;;;;;;;12.48;6.28;;;;;;;6.42;100.00;97923.78;5015037;28;20029;-57
2023/12/14 01:28:53;;;;;;;10.80;5.75;;;;;;;6.42;100.00;97934.50;5023951;28;20048;-58
2023/12/14 01:31:22;;;;;;;14.32;6.68;;;;;;;6.47;100.00;97932.06;5035056;28;20052;-58
2023/12/14 01:33:48;;;;;;;8.93;6.05;;;;;;;6.55;100.00;97940.00;5033512;28;20026;-58
2023/12/14 01:36:20;;;;;;;12.82;6.32;;;;;;;6.53;100.00;97944.72;5016679;28;20037;-58
2023/12/14 01:38:45;;;;;;;13.48;6.40;;;;;;;6.43;100.00;97945.06;5016746;28;20033;-58
2023/12/14 01:41:11;;;;;;;12.80;6.32;;;;;;;6.42;100.00;97950.63;5022424;28;20033;-57
2023/12/14 01:43:36;;;;;;;12.23;7.15;;;;;;;6.38;100.00;97957.44;5017550;28;20036;-58
2023/12/14 01:46:01;;;;;;;12.05;7.07;;;;;;;6.36;100.00;97966.53;5015431;28;20022;-57
2023/12/14 01:48:27;;;;;;;12.18;7.50;;;;;;;6.33;100.00;97961.53;5016614;28;20108;-58
2023/12/14 01:50:52;;;;;;;14.65;8.25;;;;;;;6.30;100.00;97967.31;5016524;28;20029;-57
2023/12/14 01:53:17;;;;;;;14.43;6.78;;;;;;;6.28;100.00;97969.38;5014619;28;20033;-57
2023/12/14 01:55:43;;;;;;;16.40;6.97;;;;;;;6.32;100.00;97973.31;5006274;28;20030;-57
2023/12/14 01:58:09;;;;;;;11.63;6.43;;;;;;;6.33;100.00;97976.84;5013356;28;20080;-62
2023/12/14 02:00:47;;;;;;;16.48;8.27;;;;;;;6.31;100.00;97977.06;5003507;28;20124;-57
2023/12/14 02:03:12;;;;;;;19.45;8.00;;;;;;;6.27;100.00;97980.31;5012269;28;20025;-57
2023/12/14 02:05:38;;;;;;;14.80;8.32;;;;;;;6.27;100.00;97978.47;5011450;28;20030;-57
2023/12/14 02:08:03;;;;;;;15.20;8.02;;;;;;;6.28;100.00;97990.84;5009590;28;20052;-57
2023/12/14 02:10:28;;;;;;;13.88;7.63;;;;;;;6.26;100.00;97992.94;5002925;28;20032;-57
2023/12/14 02:12:54;;;;;;;24.38;8.73;;;;;;;6.27;100.00;97994.56;5017806;28;20033;-58
2023/12/14 02:15:20;;;;;;;19.65;8.57;;;;;;;6.29;100.00;97992.53;5013567;28;20041;-57
2023/12/14 02:17:46;;;;;;;15.82;8.48;;;;;;;6.31;100.00;98001.22;5014426;28;20033;-58
2023/12/14 02:20:11;;;;;;;16.77;8.98;;;;;;;6.35;100.00;97998.97;5022398;28;20037;-57
2023/12/14 02:22:56;;;;;;;16.00;8.45;;;;;;;6.34;100.00;97999.97;5023192;28;20036;-57
2023/12/14 02:25:23;;;;;;;16.88;8.68;;;;;;;6.34;100.00;98008.91;5014242;28;20018;-57
2023/12/14 02:27:51;;;;;;;20.35;9.13;;;;;;;6.30;100.00;98002.25;5017880;28;20396;-57
2023/12/14 02:30:17;;;;;;;16.08;8.85;;;;;;;6.28;100.00;97998.91;5008763;28;20377;-57
2023/12/14 02:32:42;;;;;;;18.13;8.68;;;;;;;6.42;100.00;98015.97;5011221;28;20026;-57
2023/12/14 02:35:08;;;;;;;19.52;8.07;;;;;;;6.43;100.00;98014.13;5032989;28;20033;-57
2023/12/14 02:37:36;;;;;;;16.08;8.10;;;;;;;6.45;100.00;98018.25;5018918;28;20053;-57
2023/12/14 02:40:03;;;;;;;19.90;8.53;;;;;;;6.51;100.00;98020.16;5016266;28;20053;-57
2023/12/14 02:42:28;;;;;;;18.58;8.98;;;;;;;6.54;100.00;98021.63;5007669;28;20842;-62
2023/12/14 02:44:54;;;;;;;17.85;8.80;;;;;;;6.56;100.00;98031.16;5012218;28;20033;-62
2023/12/14 02:47:19;;;;;;;17.77;8.75;;;;;;;6.57;100.00;98023.91;5012835;28;20018;-63
2023/12/14 02:49:45;;;;;;;17.70;8.95;;;;;;;6.52;100.00;98026.34;5014504;28;20025;-65
2023/12/14 02:52:10;;;;;;;19.10;8.77;;;;;;;6.50;100.00;98023.06;5012549;28;20025;-62
2023/12/14 02:54:39;;;;;;;15.07;8.18;;;;;;;6.49;100.00;98018.69;5007162;28;20079;-62
2023/12/14 02:57:05;;;;;;;;;;;;;;;6.56;100.00;98030.31;5015355;28;20068;-61
2023/12/14 02:59:30;;;;;;;18.17;8.35;;;;;;;6.55;100.00;98029.50;5017927;28;19967;-56
2023/12/14 03:01:56;;;;;;;16.35;7.80;;;;;;;6.51;100.00;98027.41;5003444;28;20079;-56
2023/12/14 03:04:21;;;;;;;20.23;9.95;;;;;;;6.47;100.00;98036.84;5012826;28;20378;-57
2023/12/14 03:06:47;;;;;;;19.65;8.82;;;;;;;6.48;100.00;98038.53;5005574;28;20026;-57
2023/12/14 03:09:12;;;;;;;18.85;8.63;;;;;;;6.47;100.00;98036.84;5031553;28;20029;-57
2023/12/14 03:11:37;;;;;;;19.08;9.10;;;;;;;6.48;100.00;98038.53;5008052;28;20516;-56
2023/12/14 03:14:04;;;;;;;16.80;9.60;;;;;;;6.45;100.00;98050.50;5008336;28;20026;-57
2023/12/14 03:16:29;;;;;;;17.23;9.15;;;;;;;6.41;100.00;98054.59;5013044;28;20124;-57
2023/12/14 03:18:56;;;;;;;20.77;10.27;;;;;;;6.38;100.00;98054.16;5015026;28;20172;-57
2023/12/14 03:21:22;;;;;;;20.10;10.75;;;;;;;6.34;100.00;98054.56;5014747;28;20030;-57
2023/12/14 03:23:49;;;;;;;20.23;10.55;;;;;;;6.33;100.00;98068.19;5009072;28;20040;-57
2023/12/14 03:26:14;;;;;;;21.27;11.00;;;;;;;6.31;100.00;98070.22;5001103;28;20034;-57
2023/12/14 03:28:40;;;;;;;22.38;10.70;;;;;;;6.35;100.00;98079.56;5007175;28;20072;-56
2023/12/14 03:31:05;;;;;;;24.63;11.10;;;;;;;6.38;100.00;98083.72;5026056;28;20140;-57
2023/12/14 03:33:30;;;;;;;26.52;11.75;;;;;;;6.44;100.00;98085.63;5004947;28;20030;-57
2023/12/14 03:35:56;;;;;;;21.08;10.77;;;;;;;6.49;100.00;98088.56;5013988;28;20080;-62
2023/12/14 03:38:21;;;;;;;20.25;10.65;;;;;;;6.50;100.00;98084.88;5014573;28;20105;-56
2023/12/14 03:40:47;;;;;;;21.65;10.27;;;;;;;6.48;100.00;98094.97;5008634;28;20025;-57
2023/12/14 03:43:13;;;;;;;18.42;9.90;;;;;;;6.44;100.00;98099.88;5005505;28;20026;-58
2023/12/14 03:45:38;;;;;;;19.73;11.10;;;;;;;6.41;100.00;98096.75;5018316;28;20018;-61
2023/12/14 03:48:04;;;;;;;25.08;15.80;;;;;;;6.36;100.00;98102.72;5014788;28;20088;-57
2023/12/14 03:50:29;;;;;;;28.42;14.65;;;;;;;6.38;100.00;98107.91;5023450;28;20376;-58
2023/12/14 03:52:54;;;;;;;22.65;13.73;;;;;;;6.38;100.00;98113.28;5006169;28;20165;-57
2023/12/14 03:55:20;;;;;;;25.23;13.80;;;;;;;6.36;100.00;98113.47;5022903;28;20021;-58
2023/12/14 03:57:45;;;;;;;20.60;12.95;;;;;;;6.38;100.00;98126.72;5007473;28;20113;-57
2023/12/14 04:00:15;;;;;;;28.23;14.15;;;;;;;6.34;100.00;98129.78;5037585;28;20163;-57
2023/12/14 04:02:41;;;;;;;23.45;13.15;;;;;;;6.31;100.00;98127.50;5010901;28;20029;-57
2023/12/14 04:05:10;;;;;;;22.33;13.13;;;;;;;6.31;100.00;98127.50;5032193;28;20113;-57
2023/12/14 04:07:40;;;;;;;22.15;12.70;;;;;;;6.29;100.00;98136.75;5015611;28;20056;-57
2023/12/14 04:10:05;;;;;;;;;;;;;;;6.26;100.00;98143.34;5060261;23;20383;-79
2023/12/14 04:12:31;;;;;;;22.90;12.27;;;;;;;6.26;100.00;98145.19;5078990;28;19916;-80
2023/12/14 04:14:56;;;;;;;24.27;12.30;;;;;;;6.14;100.00;98126.06;5069943;28;20101;-78
2023/12/14 04:17:21;;;;;;;24.92;12.68;;;;;;;6.20;100.00;98138.72;5084186;28;20024;-79
2023/12/14 04:19:47;;;;;;;31.83;13.82;;;;;;;6.12;100.00;98141.53;5076558;28;20198;-79
2023/12/14 04:22:12;;;;;;;21.88;12.50;;;;;;;6.28;100.00;98165.47;5063280;28;20025;-79
2023/12/14 04:24:37;;;;;;;29.48;11.90;;;;;;;6.24;100.00;98152.63;5054015;28;20017;-79
2023/12/14 04:27:03;;;;;;;25.65;12.73;;;;;;;6.05;100.00;98121.84;5043230;28;20017;-79
2023/12/14 04:29:28;;;;;;;20.15;11.07;;;;;;;6.28;100.00;98162.78;5052037;28;20024;-79
2023/12/14 04:31:53;;;;;;;20.60;11.80;;;;;;;6.30;100.00;98159.91;5061927;28;20060;-79
2023/12/14 04:34:19;;;;;;;25.77;11.68;;;;;;;6.42;100.00;98169.13;5060714;28;20095;-82
2023/12/14 04:36:48;;;;;;;28.13;11.98;;;;;;;6.44;100.00;98177.81;5050339;28;20063;-80
2023/12/14 04:39:13;;;;;;;21.45;11.82;;;;;;;6.41;100.00;98177.38;5057210;28;20024;-80
2023/12/14 04:41:38;;;;;;;22.73;12.27;;;;;;;6.34;100.00;98170.09;5032849;28;20033;-80
2023/12/14 04:44:04;;;;;;;23.27;11.57;;;;;;;6.36;100.00;98191.38;5039081;28;20195;-79
2023/12/14 04:46:29;;;;;;;21.60;12.35;;;;;;;6.43;100.00;98202.19;5051264;28;20060;-80
2023/12/14 04:48:55;;;;;;;27.73;13.13;;;;;;;6.23;100.00;98167.06;5048169;28;20278;-80
2023/12/14 04:51:20;;;;;;;24.88;13.05;;;;;;;6.33;100.00;98179.16;5066271;28;20028;-79
2023/12/14 04:53:46;;;;;;;27.05;14.23;;;;;;;6.42;100.00;98196.00;5056347;28;20029;-80
2023/12/14 04:56:11;;;;;;;21.73;12.10;;;;;;;6.49;100.00;98196.88;5051635;28;20032;-81
2023/12/14 04:58:39;;;;;;;23.88;13.43;;;;;;;6.51;100.00;98199.38;5055077;28;20036;-80
2023/12/14 05:01:04;;;;;;;19.33;11.45;;;;;;;6.56;100.00;98227.34;5056117;28;20338;-79
2023/12/14 05:03:29;;;;;;;24.55;12.40;;;;;;;6.50;100.00;98208.47;5049650;28;20029;-79
2023/12/14 05:05:55;;;;;;;23.95;11.25;;;;;;;6.50;100.00;98211.16;5057181;28;20021;-79
2023/12/14 05:08:20;;;;;;;20.65;11.93;;;;;;;6.57;100.00;98212.03;5049157;28;20036;-78
2023/12/14 05:10:45;;;;;;;24.73;11.43;;;;;;;6.54;100.00;98213.25;5055496;28;20322;-78
2023/12/14 05:13:11;;;;;;;20.02;11.13;;;;;;;6.49;100.00;98210.31;5029096;28;20029;-76
2023/12/14 05:15:36;;;;;;;19.80;11.13;;;;;;;6.60;100.00;98217.03;5053461;28;20032;-75
2023/12/14 05:18:01;;;;;;;20.70;11.70;;;;;;;6.74;100.00;98242.19;5042407;28;20029;-79
2023/12/14 05:20:28;;;;;;;18.02;10.40;;;;;;;6.60;100.00;98225.09;5058338;28;20024;-78
2023/12/14 05:22:53;;;;;;;18.33;10.07;;;;;;;6.63;100.00;98238.16;5051610;28;20032;-78
2023/12/14 05:25:18;;;;;;;25.27;11.25;;;;;;;6.54;100.00;98242.81;5046475;28;20241;-80
2023/12/14 05:27:44;;;;;;;27.15;13.35;;;;;;;6.22;100.00;98194.97;5068177;28;20052;-81
2023/12/14 05:30:09;;;;;;;20.70;11.60;;;;;;;6.46;100.00;98255.56;5051353;28;20043;-81
2023/12/14 05:32:35;;;;;;;32.17;12.63;;;;;;;6.49;100.00;98269.44;5058144;28;20086;-79
2023/12/14 05:35:00;;;;;;;21.73;12.50;;;;;;;6.49;100.00;98272.13;5047880;28;20087;-78
2023/12/14 05:37:25;;;;;;;24.58;12.80;;;;;;;6.46;100.00;98261.75;5043343;28;20152;-82
2023/12/14 05:39:51;;;;;;;25.67;13.70;;;;;;;6.54;100.00;98282.31;5056127;28;20024;-80
2023/12/14 05:42:17;;;;;;;34.38;15.10;;;;;;;6.49;100.00;98277.50;5060780;28;20222;-80
2023/12/14 05:44:44;;;;;;;32.53;15.90;;;;;;;6.53;100.00;98291.41;5052981;28;20021;-80
2023/12/14 05:47:10;;;;;;;36.55;15.55;;;;;;;6.45;100.00;98273.53;5060223;28;20060;-80
2023/12/14 05:49:35;;;;;;;33.03;15.90;;;;;;;6.48;100.00;98293.81;5048886;28;20104;-84
2023/12/14 05:52:01;;;;;;;35.58;16.15;;;;;;;6.51;100.00;98288.88;5057077;28;20045;-83
2023/12/14 05:54:26;;;;;;;31.17;14.68;;;;;;;6.49;100.00;98282.88;5055582;28;20029;-82
2023/12/14 05:56:52;;;;;;;33.42;15.20;;;;;;;6.60;100.00;98294.97;5045712;28;20068;-82
2023/12/14 05:59:18;;;;;;;29.55;14.88;;;;;;;6.63;100.00;98283.84;5053965;28;20040;-82
2023/12/14 06:01:43;;;;;;;30.83;13.93;;;;;;;6.59;100.00;98282.56;5054006;28;20029;-78
2023/12/14 06:04:08;;;;;;;29.67;13.13;;;;;;;6.80;100.00;98311.31;5037162;28;20040;-83
2023/12/14 06:06:34;;;;;;;25.27;13.07;;;;;;;6.77;100.00;98304.47;5045265;28;20040;-80
2023/12/14 06:08:59;;;;;;;23.85;12.05;;;;;;;6.85;100.00;98316.97;5041407;28;20139;-82
2023/12/14 06:11:24;;;;;;;24.15;11.38;;;;;;;6.92;100.00;98319.72;5056785;28;20032;-81
2023/12/14 06:13:50;;;;;;;21.75;11.63;;;;;;;6.86;100.00;98318.59;5045917;28;20079;-80
2023/12/14 06:16:15;;;;;;;26.90;12.93;;;;;;;6.83;100.00;98312.78;5057090;28;20025;-82
2023/12/14 06:18:41;;;;;;;28.27;12.55;;;;;;;6.88;100.00;98330.00;5054064;28;20241;-83
2023/12/14 06:21:08;;;;;;;21.20;10.77;;;;;;;6.80;100.00;98317.53;5078600;28;20031;-82
2023/12/14 06:23:35;;;;;;;23.55;10.82;;;;;;;6.86;100.00;98331.22;5055237;28;20067;-81
2023/12/14 06:26:03;;;;;;;26.70;11.07;;;;;;;6.74;100.00;98318.28;5068974;28;20020;-77
2023/12/14 06:28:28;;;;;;;19.60;11.27;;;;;;;6.93;100.00;98343.72;5050820;28;20021;-79
2023/12/14 06:30:53;;;;;;;23.90;12.10;;;;;;;6.95;100.00;98351.59;5064279;28;20117;-81
2023/12/14 06:33:19;;;;;;;23.42;12.27;;;;;;;6.94;100.00;98344.53;5047605;28;20048;-78
2023/12/14 06:35:44;;;;;;;23.70;11.40;;;;;;;7.00;100.00;98365.31;5051208;28;20041;-78
2023/12/14 06:38:09;;;;;;;29.80;11.98;;;;;;;7.01;100.00;98372.34;5045034;28;20033;-75
2023/12/14 06:40:35;;;;;;;25.27;12.45;;;;;;;6.93;100.00;98359.84;5035396;28;20056;-76
2023/12/14 06:43:00;;;;;;;23.98;12.80;;;;;;;7.09;100.00;98382.97;5049897;28;20055;-75
2023/12/14 06:45:25;;;;;;;22.77;12.05;;;;;;;7.04;100.00;98385.41;5056055;28;20059;-74
2023/12/14 06:47:50;;;;;;;25.52;12.55;;;;;;;7.03;100.00;98365.75;5060044;28;20261;-75
2023/12/14 06:50:16;;;;;;;24.05;12.05;;;;;;;6.96;100.00;98377.47;5048626;28;20026;-75
2023/12/14 06:52:41;;;;;;;24.55;11.90;;;;;;;6.96;100.00;98382.84;5034745;28;20096;-76
2023/12/14 06:55:07;;;;;;;26.00;11.93;;;;;;;7.03;100.00;98413.34;5045727;28;20025;-73
2023/12/14 06:57:32;;;;;;;24.63;11.52;;;;;;;6.95;100.00;98394.63;5050441;28;20032;-76
2023/12/14 06:59:57;;;;;;;23.27;11.02;;;;;;;6.97;100.00;98406.88;5038690;28;20056;-74
2023/12/14 07:02:23;;;;;;;26.65;11.40;;;;;;;6.95;100.00;98406.22;5028789;28;20229;-76
2023/12/14 07:04:48;;;;;;;21.02;11.30;;;;;;;6.93;100.00;98408.25;5045693;28;20029;-73
2023/12/14 07:07:15;;;;;;;24.15;11.80;;;;;;;6.93;100.00;98412.81;5044561;28;20026;-74
2023/12/14 07:09:40;;;;;;;23.95;12.55;;;;;;;6.93;100.00;98412.81;5037268;28;20033;-75
2023/12/14 07:12:06;;;;;;;28.40;11.70;;;;;;;7.01;100.00;98437.72;5047761;28;20117;-75
2023/12/14 07:14:31;;;;;;;23.77;12.38;;;;;;;6.99;100.00;98444.31;5055758;28;20333;-74
2023/12/14 07:16:56;;;;;;;22.90;12.55;;;;;;;6.86;100.00;98445.00;5035511;28;20280;-75
2023/12/14 07:19:22;;;;;;;23.73;12.05;;;;;;;6.79;100.00;98444.09;5031488;28;20017;-76
2023/12/14 07:21:47;;;;;;;24.52;12.55;;;;;;;6.81;100.00;98450.09;5048587;28;20096;-77
2023/12/14 07:24:12;;;;;;;28.17;13.05;;;;;;;7.00;100.00;98465.66;5052384;28;20025;-75
2023/12/14 07:26:37;;;;;;;23.30;12.60;;;;;;;7.02;100.00;98462.75;5052956;28;20330;-77
2023/12/14 07:29:03;;;;;;;23.58;11.88;;;;;;;7.17;100.00;98485.09;5043438;28;20036;-75
2023/12/14 07:31:29;;;;;;;27.17;13.43;;;;;;;6.99;100.00;98465.84;5045639;28;20307;-75
2023/12/14 07:33:55;;;;;;;25.63;12.95;;;;;;;6.94;100.00;98462.88;5074699;28;20078;-75
2023/12/14 07:36:22;;;;;;;23.60;12.70;;;;;;;6.90;100.00;98475.03;5051564;28;20025;-79
2023/12/14 07:38:47;;;;;;;29.20;13.57;;;;;;;6.95;100.00;98494.16;5057566;28;20028;-80
2023/12/14 07:41:13;;;;;;;30.50;13.88;;;;;;;6.96;100.00;98493.09;5069168;28;20284;-79
2023/12/14 07:43:38;;;;;;;32.00;16.67;;;;;;;6.94;100.00;98487.94;5057794;28;20025;-81
2023/12/14 07:46:03;;;;;;;40.65;16.83;;;;;;;7.02;100.00;98503.97;5052741;28;20199;-80
2023/12/14 07:48:29;;;;;;;44.08;18.50;;;;;;;6.87;100.00;98495.06;5054422;28;21347;-79
2023/12/14 07:50:54;;;;;;;35.35;15.73;;;;;;;6.92;100.00;98495.34;5052710;28;20036;-81
2023/12/14 07:53:19;;;;;;;36.33;15.98;;;;;;;6.93;100.00;98504.25;5055443;28;20028;-79
2023/12/14 07:55:44;;;;;;;38.35;16.92;;;;;;;7.05;100.00;98512.66;5053390;28;20040;-81
2023/12/14 07:58:10;;;;;;;35.05;16.38;;;;;;;7.10;100.00;98507.53;5049496;28;20071;-80
2023/12/14 08:00:35;;;;;;;34.97;15.88;;;;;;;7.20;100.00;98526.91;5044784;28;20029;-78
2023/12/14 08:03:00;;;;;;;32.78;16.67;;;;;;;7.03;100.00;98505.63;5048625;28;20056;-80
2023/12/14 08:05:26;;;;;;;31.65;14.65;;;;;;;6.98;100.00;98483.84;5054725;28;20017;-78
2023/12/14 08:07:52;;;;;;;31.65;16.35;;;;;;;7.16;100.00;98512.19;5043623;28;20017;-77
2023/12/14 08:10:18;;;;;;;33.72;15.30;;;;;;;7.12;100.00;98525.16;5043691;28;20016;-78
2023/12/14 08:12:43;;;;;;;32.67;15.02;;;;;;;7.03;100.00;98521.75;5044623;28;20033;-83
2023/12/14 08:15:09;;;;;;;36.83;17.67;;;;;;;7.09;100.00;98522.84;5041131;28;20026;-80
2023/12/14 08:17:35;;;;;;;38.92;16.60;;;;;;;7.06;100.00;98533.16;5062615;28;20383;-79
2023/12/14 08:20:00;;;;;;;38.30;16.25;;;;;;;7.10;100.00;98521.00;5060068;28;20371;-76
2023/12/14 08:22:26;;;;;;;33.88;15.40;;;;;;;7.28;100.00;98528.66;5045723;28;20107;-76
2023/12/14 08:24:51;;;;;;;29.23;14.10;;;;;;;7.36;100.00;98539.31;5047879;28;20028;-76
2023/12/14 08:27:16;;;;;;;31.33;14.40;;;;;;;7.51;100.00;98571.59;5055472;28;20025;-78
2023/12/14 08:29:41;;;;;;;26.95;14.15;;;;;;;7.60;100.00;98576.69;5059065;28;20337;-76
2023/12/14 08:32:07;;;;;;;28.15;14.30;;;;;;;7.47;100.00;98549.63;5053640;28;20055;-78
2023/12/14 08:34:32;;;;;;;28.52;13.35;;;;;;;7.56;100.00;98572.69;5059150;28;20037;-77
2023/12/14 08:36:57;;;;;;;28.73;13.32;;;;;;;7.49;100.00;98574.47;5073172;28;20082;-79
2023/12/14 08:39:23;;;;;;;22.45;12.50;;;;;;;7.63;100.00;98581.69;5056263;28;20028;-77
2023/12/14 08:41:48;;;;;;;27.77;12.60;;;;;;;7.78;100.00;98605.88;5034978;28;20289;-78
2023/12/14 08:44:15;;;;;;;21.95;12.55;;;;;;;7.64;100.00;98588.72;5053362;28;20036;-76
2023/12/14 08:46:41;;;;;;;25.02;13.30;;;;;;;7.73;100.00;98615.53;5030866;28;20245;-80
2023/12/14 08:49:07;;;;;;;26.60;12.90;;;;;;;7.69;100.00;98589.00;5055287;28;20021;-79
2023/12/14 08:51:32;;;;;;;26.60;13.50;;;;;;;7.49;100.00;98570.94;5045605;28;20164;-78
2023/12/14 08:53:57;;;;;;;25.67;12.60;;;;;;;7.73;100.00;98608.31;5048151;28;20021;-79
2023/12/14 08:56:22;;;;;;;27.75;13.55;;;;;;;7.68;100.00;98618.81;5050519;28;20022;-81
2023/12/14 08:58:48;;;;;;;26.27;13.48;;;;;;;7.74;100.00;98620.75;5069762;28;20031;-81
2023/12/14 09:01:20;;;;;;;23.35;13.13;;;;;;;7.76;100.00;98605.22;5057006;28;20021;-82
2023/12/14 09:03:45;;;;;;;27.52;12.85;;;;;;;7.84;100.00;98609.66;5055527;28;20021;-81
2023/12/14 09:06:11;;;;;;;28.60;14.43;;;;;;;8.04;100.00;98620.63;5047597;28;20044;-79
2023/12/14 09:08:36;;;;;;;26.25;13.07;;;;;;;8.32;100.00;98628.81;5058001;28;20023;-79
2023/12/14 09:11:02;;;;;;;22.67;11.27;;;;;;;8.24;100.00;98627.06;5048154;28;20084;-78
2023/12/14 09:13:27;;;;;;;19.45;11.43;;;;;;;8.45;100.00;98650.50;5063230;28;20025;-79
2023/12/14 09:15:53;;;;;;;22.42;11.25;;;;;;;8.41;100.00;98643.88;5045783;28;20318;-79
2023/12/14 09:18:20;;;;;;;21.05;11.32;;;;;;;8.27;100.00;98636.63;5042806;28;20013;-78
2023/12/14 09:20:45;;;;;;;17.38;10.30;;;;;;;8.19;100.00;98632.19;5047310;28;20280;-79
2023/12/14 09:23:10;;;;;;;16.85;10.20;;;;;;;8.09;100.00;98639.75;5049850;28;20028;-81
2023/12/14 09:25:36;;;;;;;22.48;10.70;;;;;;;8.22;100.00;98644.44;5052916;28;20016;-84
2023/12/14 09:28:01;;;;;;;18.33;9.85;;;;;;;8.39;100.00;98659.38;5075690;28;20049;-81
2023/12/14 09:30:26;;;;;;;21.77;10.30;;;;;;;8.37;100.00;98647.09;5072207;28;20035;-82
2023/12/14 09:32:52;;;;;;;15.98;9.43;;;;;;;8.50;100.00;98664.25;5052981;28;20017;-82
2023/12/14 09:35:18;;;;;;;20.23;10.50;;;;;;;8.58;100.00;98676.78;5061381;28;20028;-78
2023/12/14 09:37:43;;;;;;;18.73;9.70;;;;;;;8.24;100.00;98634.31;5043380;28;20112;-78
2023/12/14 09:40:09;;;;;;;19.00;10.15;;;;;;;8.60;100.00;98663.09;5049255;28;20063;-76
2023/12/14 09:42:41;;;;;;;21.85;10.73;;;;;;;8.69;100.00;98667.31;5048782;28;20032;-76
2023/12/14 09:45:08;;;;;;;16.80;10.15;;;;;;;8.62;100.00;98671.81;5045790;28;20017;-78
2023/12/14 09:47:34;;;;;;;17.58;9.20;;;;;;;8.79;100.00;98686.69;5061489;28;20033;-79
2023/12/14 09:50:00;;;;;;;20.92;9.32;;;;;;;8.65;100.00;98671.44;5057548;28;20317;-80
2023/12/14 09:52:26;;;;;;;16.00;9.00;;;;;;;8.85;100.00;98688.59;5066563;28;20021;-81
2023/12/14 09:54:51;;;;;;;16.40;9.57;;;;;;;8.75;100.00;98674.63;5044430;28;20027;-76
2023/12/14 09:57:18;;;;;;;17.88;9.18;;;;;;;8.93;100.00;98675.00;5051033;28;20021;-78
2023/12/14 09:59:54;;;;;;;13.77;8.18;;;;;;;8.98;100.00;98694.09;5040548;28;20038;-79
2023/12/14 10:02:20;;;;;;;13.95;8.27;;;;;;;8.94;100.00;98687.44;5048173;28;20104;-78
2023/12/14 10:04:46;;;;;;;13.45;7.95;;;;;;;8.93;100.00;98677.69;5056614;28;20020;-76
2023/12/14 10:07:12;;;;;;;16.30;8.05;;;;;;;8.86;100.00;98687.59;5046210;28;20442;-77
2023/12/14 10:09:37;;;;;;;11.68;7.38;;;;;;;8.84;100.00;98689.66;5044013;28;20340;-79
2023/12/14 10:12:05;;;;;;;17.50;8.15;;;;;;;8.84;100.00;98713.94;5080886;23;20073;-75
2023/12/14 10:14:31;;;;;;;15.57;8.15;;;;;;;8.80;100.00;98723.44;5067984;28;20039;-75
2023/12/14 10:16:58;;;;;;;15.43;8.05;;;;;;;8.86;100.00;98728.06;5072457;28;20080;-74
2023/12/14 10:19:24;;;;;;;14.88;7.68;;;;;;;8.65;100.00;98704.63;5084212;28;20087;-74
2023/12/14 10:21:50;;;;;;;17.27;7.72;;;;;;;8.72;100.00;98720.88;5071361;28;20062;-75
2023/12/14 10:24:16;;;;;;;13.55;7.32;;;;;;;8.91;100.00;98724.78;5042163;28;20053;-75
2023/12/14 10:26:45;;;;;;;17.13;7.32;;;;;;;9.10;100.00;98725.97;5042749;28;20023;-75
2023/12/14 10:29:10;;;;;;;14.05;7.55;;;;;;;9.12;100.00;98722.06;5046826;28;20029;-73
2023/12/14 10:31:37;;;;;;;11.73;6.20;;;;;;;9.32;100.00;98713.25;5074677;28;20044;-75
2023/12/14 10:34:06;;;;;;;12.55;6.47;;;;;;;9.06;100.00;98728.22;5054986;28;20024;-75
2023/12/14 10:36:32;;;;;;;14.07;6.25;;;;;;;9.19;100.00;98732.88;5074512;28;20088;-74
2023/12/14 10:39:00;;;;;;;10.95;6.45;;;;;;;9.12;100.00;98719.34;5063152;28;20033;-74
2023/12/14 10:41:28;;;;;;;12.05;6.15;;;;;;;9.21;100.00;98739.75;5064118;28;20036;-75
2023/12/14 10:43:55;;;;;;;14.85;6.28;;;;;;;9.14;100.00;98741.59;5047846;28;20033;-75
2023/12/14 10:46:21;;;;;;;13.35;6.85;;;;;;;9.13;100.00;98736.38;5048260;28;20067;-74
2023/12/14 10:48:50;;;;;;;13.80;6.55;;;;;;;9.09;100.00;98727.84;5069303;28;20024;-75
2023/12/14 10:51:21;;;;;;;10.20;6.15;;;;;;;9.13;100.00;98749.88;5090563;28;20076;-75
2023/12/14 10:53:48;;;;;;;12.98;6.93;;;;;;;9.23;100.00;98749.53;5061135;28;20085;-75
2023/12/14 10:56:13;;;;;;;10.68;6.13;;;;;;;9.24;100.00;98749.31;5054464;28;20044;-75
2023/12/14 10:58:47;;;;;;;11.60;6.20;;;;;;;9.34;100.00;98757.09;5069360;28;20044;-75
2023/12/14 11:01:15;;;;;;;13.80;6.55;;;;;;;9.37;100.00;98744.03;5078043;28;20035;-75
2023/12/14 11:03:41;;;;;;;14.13;6.45;;;;;;;9.40;100.00;98748.19;5071260;28;20980;-75
2023/12/14 11:06:30;;;;;;;15.77;7.38;;;;;;;9.37;100.00;98748.59;5055753;28;20021;-75
2023/12/14 11:09:05;;;;;;;13.75;7.15;;;;;;;9.44;100.00;98750.31;5068696;28;20041;-75
2023/12/14 11:11:40;;;;;;;13.88;6.57;;;;;;;9.27;100.00;98751.63;5059471;28;20406;-75
2023/12/14 11:14:08;;;;;;;11.35;6.80;;;;;;;9.30;100.00;98753.97;5069269;28;20078;-75
2023/12/14 11:16:33;;;;;;;12.23;7.40;;;;;;;9.65;100.00;98756.69;5076055;28;20020;-75